Aquinnah, Massachusetts
Current Conditions -  °F | °C
As of 2:53 AM on Friday 28 Nov 2014 (Local Time) from KMVY Reporting Station
Overcast Overcast  
Wind Chill: 24°   Ceiling: 700
Heat Index: 33°   Visibility: 10mi
Dew Point: 31°   Wind: 12mph
Humidity: 92%   Direction: 340°NNW
Pressure: 29.94"   Gusts: NA
Location:  41.3536°N, 70.7417°W
Report Text: KMVY 280753Z AUTO 34010KT 10SM OVC007 01/M01 A2994 RMK AO2 SLP140 T00061006
Loading
Personal Weather Stations






























Interactive Weather Map New forecast layout! Learn more

10-Day Weather Forecast

Advertisements
Track Severe Weather on mobile